James Reserve, California Weather observations

Data are for 10 minute period ending at time listed.
 Day   Time   Solar   Ave.   Ave.  Ave.  Vector  Max.   Baro.   Total    
  of    of     Rad.   Air    Rel.  Wind   Wind   Wind  Press.  Precip.   
Year   Day            Temp.  Hum.  Speed  Dir.   Gust                    
2016   (PST)  Kw/m2    F      %     mph   deg.    mph    mb.     in.     
-------------------------------------------------------------------------
 180    0:00   0.00   59.1    51    0.4    45     0.8   841.6    0.00 
 180    0:10   0.00   59.1    50    0.4    25     0.7   841.6    0.00 
 180    0:20   0.00   59.4    48    0.3    34     0.6   841.4    0.00 
 180    0:30   0.00   59.4    48    0.3    32     0.6   841.5    0.00 
 180    0:40   0.00   59.5    49    0.4    37     0.6   841.3    0.00 
 180    0:50   0.00   59.6    49    0.3    28     0.5   841.3    0.00 
 180    1:00   0.00   59.7    50    0.2    27     0.5   841.3    0.00 
 180    1:10   0.00   59.6    51    0.3    29     0.6   841.3    0.00 
 180    1:20   0.00   59.7    52    0.2    28     0.4   841.3    0.00 
 180    1:30   0.00   59.8    51    0.3    23     0.5   841.2    0.00 
 180    1:40   0.00   59.8    51    0.4    32     0.9   841.2    0.00 
 180    1:50   0.00   60.1    51    0.3    40     0.6   841.2    0.00 
 180    2:00   0.00   60.5    50    0.3    30     0.7   841.2    0.00 
 180    2:10   0.00   60.7    50    0.3    23     0.5   841.3    0.00 
 180    2:20   0.00   60.9    50    0.3    32     0.6   841.2    0.00 
 180    2:30   0.00   61.1    50    0.3    29     0.7   841.2    0.00 
 180    2:40   0.00   61.2    50    0.4    40     0.6   841.3    0.00 
 180    2:50   0.00   61.3    50    0.2    20     0.4   841.3    0.00 
 180    3:00   0.00   61.5    49    0.3    44     0.6   841.1    0.00 
 180    3:10   0.00   61.4    49    0.3    34     0.6   841.1    0.00 
 180    3:20   0.00   61.7    49    0.3    28     0.6   841.1    0.00 
 180    3:30   0.00   61.9    48    0.3    26     0.6   841.2    0.00 
 180    3:40   0.00   62.0    50    0.3    40     0.6   841.2    0.00 
 180    3:50   0.00   62.0    50    0.2    23     0.4   841.2    0.00 
 180    4:00   0.00   62.0    50    0.2    16     0.4   841.3    0.00 
 180    4:10   0.00   62.0    49    0.2    28     0.4   841.3    0.00 
 180    4:20   0.00   61.8    49    0.2    31   99999.0   841.4    0.00 
 180    4:30   0.00   61.5    48    0.3    32     0.5   841.4    0.00 
 180    4:40   0.00   61.5    48    0.3    31     0.5   841.5    0.00 
 180    4:50   0.00   61.6    47    0.2    26     0.4   841.5    0.00 
 180    5:00   0.00   61.8    47    0.3    35     0.5   841.5    0.00 
 180    5:10   0.01   61.9    47    0.2    34   99999.0   841.6    0.00 
 180    5:20   0.01   61.7    48    0.2    22     0.4   841.7    0.00 
 180    5:30   0.01   61.6    49    0.2    35     0.7   841.7    0.00 
 180    5:40   0.02   61.3    51    0.2    32     0.7   841.8    0.00 
 180    5:50   0.02   61.1    53    0.3    42     0.5   841.8    0.00 
 180    6:00   0.03   61.0    55    0.2    36     0.7   841.9    0.00 
 180    6:10   0.05   61.2    58    0.3    43     0.5   841.9    0.00 
 180    6:20   0.07   61.7    58    0.2    46     0.4   841.9    0.00 
 180    6:30   0.08   62.8    59    0.3    52     0.4   842.0    0.00 
 180    6:40   0.08   63.8    60    0.3    54     0.4   842.1    0.00 
 180    6:50   0.07   64.4    61    0.3    56     0.4   842.1    0.00 
 180    7:00   0.16   65.6    62    0.3    52     0.5   842.2    0.00 
 180    7:10   0.35   66.9    62    0.4    51     0.8   842.2    0.00 
 180    7:20   0.54   70.7    58    0.4    47     0.8   99999.0    0.00 
 180    7:30   0.36   71.9    58    0.3    78     0.7   842.1    0.00 
 180    7:40   0.31   72.0    62    0.2   198     0.7   842.2    0.00 
 180    7:50   0.36   72.1    57    0.5    46     1.0   842.2    0.00 
 180    8:00   0.33   73.6    50    0.3    44     0.9   842.2    0.00 
 180    8:10   0.62   74.1    54    0.4   204     1.0   842.2    0.00 
 180    8:20   0.68   77.8    48    0.3   138     0.7   842.2    0.00 
 180    8:30   0.69   79.3    42    0.4   189     1.0   842.1    0.00 
 180    8:40   0.71   79.8    35    0.8   234     1.9   842.0    0.00 
 180    8:50   0.74   80.5    32    0.8   221     1.5   841.9    0.00 
 180    9:00   0.78   80.9    31    0.8   206     2.4   842.0    0.00 
 180    9:10   0.81   81.4    29    0.7   202     1.5   841.9    0.00 
 180    9:20   0.84   81.5    29    0.8   201     1.8   841.9    0.00 
 180    9:30   0.86   82.1    27    0.9   211     2.0   841.9    0.00 
 180    9:40   0.89   82.9    26    0.9   221     1.7   841.9    0.00 
 180    9:50   0.91   83.3    25    0.7   205     2.3   841.9    0.00 
 180   10:00   0.92   82.6    26    0.7   217     1.7   841.9    0.00 
 180   10:10   0.93   82.7    26    0.7   169     1.9   841.9    0.00 
 180   10:20   0.96   82.2    25    1.0   225     2.7   841.9    0.00 
 180   10:30   0.98   83.0    25    0.9   217     1.8   841.9    0.00 
 180   10:40   0.99   84.0    25    0.9   184     2.6   841.9    0.00 
 180   10:50   1.00   82.6    26    0.8   144     1.5   841.8    0.00 
 180   11:00   1.00   84.0    25    1.0   218     2.1   841.9    0.00 
 180   11:10   1.02   83.5    25    1.1   161     3.3   841.9    0.00 
 180   11:20   1.01   83.6    25    0.9   258     2.2   841.9    0.00 
 180   11:30   1.02   83.9    25    1.1   159     3.4   841.9    0.00 
 180   11:40   1.01   84.1    26    1.1   183     2.7   841.9    0.00 
 180   11:50   0.99   82.9    26    0.9   176     3.1   841.8    0.00 
 180   12:00   1.01   83.9    26    1.0   158     2.7   841.8    0.00 
 180   12:10   1.01   84.0    26    0.9   170     2.7   841.7    0.00 
 180   12:20   1.00   84.5    27    0.9   144     2.4   841.7    0.00 
 180   12:30   0.99   84.3    27    0.8   156     1.8   841.6    0.00 
 180   12:40   0.99   84.7    26    1.0   155     2.7   841.5    0.00 
 180   12:50   0.98   84.6    27    0.8   183     2.2   841.4    0.00 
 180   13:00   0.97   85.7    26    1.0   154     3.0   841.4    0.00 
 180   13:10   0.95   84.7    26    1.1   223     3.1   841.4    0.00 
 180   13:20   0.94   85.3    26    0.9   180     2.2   841.3    0.00 
 180   13:30   0.91   85.4    26    1.0   204     3.0   841.2    0.00 
 180   13:40   0.90   85.5    26    1.2   172     4.8   841.2    0.00 
 180   13:50   0.88   86.1    26    0.9   148     2.3   841.1    0.00 
 180   14:00   0.87   85.6    26    0.9   150     2.7   841.0    0.00 
 180   14:10   0.51   85.2    26    1.0   358     2.4   841.0    0.00 
 180   14:20   0.11   84.5    27    1.2    50     3.5   840.9    0.00 
 180   14:30   0.10   84.3    28    0.9    61     2.3   840.9    0.00 
 180   14:40   0.12   83.8    29    0.8   150     1.9   840.8    0.00 
 180   14:50   0.11   83.5    29    0.8   130     2.0   840.8    0.00 
 180   15:00   0.10   83.5    30    1.1   105     2.9   840.8    0.00 
 180   15:10   0.16   83.3    30    0.9   132     2.4   840.8    0.00 
 180   15:20   0.10   82.8    31    0.7   346     2.1   840.7    0.00 
 180   15:30   0.13   82.4    31    0.8    48     2.0   840.6    0.00 
 180   15:40   0.14   82.0    31    0.7   175     1.9   840.6    0.00 
 180   15:50   0.05   81.9    30    0.9    37     2.6   840.6    0.00 
 180   16:00   0.05   81.4    30    0.7   140     2.5   840.6    0.00 
 180   16:10   0.05   81.1    30    0.7   105     2.0   840.6    0.00 
 180   16:20   0.05   80.8    30    1.0    12     3.2   840.6    0.00 
 180   16:30   0.04   80.2    31    0.6   117     2.3   840.5    0.00 
 180   16:40   0.04   80.2    29    0.7    92     2.9   840.5    0.00 
 180   16:50   0.04   80.0    30    0.5   100     1.3   840.5    0.00 
 180   17:00   0.04   79.3    31    0.5   197     1.4   840.5    0.00 
 180   17:10   0.04   78.6    33    0.6   162     1.6   840.5    0.00 
 180   17:20   0.03   77.9    35    0.6   158     2.0   840.5    0.00 
 180   17:30   0.03   76.7    39    0.4   176     1.0   840.5    0.00 
 180   17:40   0.03   76.4    39    0.3   148     0.8   840.5    0.00 
 180   17:50   0.02   75.7    40    0.1   224     0.4   840.6    0.00 
 180   18:00   0.02   74.5    43    0.2   250     0.5   840.6    0.00 
 180   18:10   0.02   73.6    43    0.2   320     0.6   840.6    0.00 
 180   18:20   0.01   72.4    43    0.2   305     0.6   840.6    0.00 
 180   18:30   0.01   71.8    43    0.4    12     0.7   840.7    0.00 
 180   18:40   0.01   70.8    45    0.3   308     0.6   840.7    0.00 
 180   18:50   0.00   70.0    46    0.3   337     0.6   840.8    0.00 
 180   19:00   0.00   69.0    48    0.4   344     0.7   840.8    0.00 
 180   19:10   0.00   68.4    49    0.3   359     0.6   840.7    0.00 
 180   19:20   0.00   67.6    49    0.3     1     0.7   840.7    0.00 
 180   19:30   0.00   66.8    49    0.3   349     0.6   840.8    0.00 
 180   19:40   0.00   66.1    49    0.3   352     0.5   840.8    0.00 
 180   19:50   0.00   65.5    49    0.4    15     0.7   840.8    0.00 
 180   20:00   0.00   65.0    49    0.3     9     0.6   840.9    0.00 
 180   20:10   0.00   64.6    48    0.4    16     0.8   840.9    0.00 
 180   20:20   0.00   64.3    48    0.4    25     1.3   841.0    0.00 
 180   20:30   0.00   63.8    49    0.4    44     1.2   841.1    0.00 
 180   20:40   0.00   63.5    50    0.5    28     1.6   841.2    0.00 
 180   20:50   0.00   63.1    50    0.4    15     0.9   841.3    0.00 
 180   21:00   0.00   63.0    50    0.5    30     1.4   841.4    0.00 
 180   21:10   0.00   62.8    51    0.3   352     0.6   841.4    0.00 
 180   21:20   0.00   62.5    52    0.4    18     1.1   841.4    0.00 
 180   21:30   0.00   62.3    52    0.4     9     1.0   841.4    0.00 
 180   21:40   0.00   62.0    52    0.2     6     0.6   841.3    0.00 
 180   21:50   0.00   61.8    52    0.3    22     0.7   841.2    0.00 
 180   22:00   0.00   61.6    53    0.3    24     0.5   841.1    0.00 
 180   22:10   0.00   61.5    53    0.3    26     0.5   841.0    0.00 
 180   22:20   0.00   61.3    54    0.4    21     0.9   841.0    0.00 

Return to James Reserve graphs page.


Western Regional Climate Center,wrcc@dri.edu